createdAt,value
2019-06-15T00:03:55.338Z,"    0"
2019-06-15T00:08:51.360Z,"    0"
2019-06-15T00:13:46.996Z,"    0"
2019-06-15T00:18:43.481Z,"    0"
2019-06-15T00:23:38.906Z,"    0"
2019-06-15T00:28:35.778Z,"    0"
2019-06-15T00:33:31.200Z,"    0"
2019-06-15T00:38:26.943Z,"    0"
2019-06-15T00:43:23.014Z,"    0"
2019-06-15T00:48:18.812Z,"    0"
2019-06-15T00:53:15.191Z,"    0"
2019-06-15T00:58:10.917Z,"    0"
2019-06-15T01:03:07.009Z,"    0"
2019-06-15T01:08:02.796Z,"    0"
2019-06-15T01:12:58.869Z,"    0"
2019-06-15T01:17:54.683Z,"    0"
2019-06-15T01:22:50.613Z,"    0"
2019-06-15T01:27:47.231Z,"    0"
2019-06-15T01:32:42.900Z,"    0"
2019-06-15T01:37:38.813Z,"    0"
2019-06-15T01:42:36.155Z,"    0"
2019-06-15T01:47:32.643Z,"    0"
2019-06-15T01:52:28.985Z,"    0"
2019-06-15T01:57:24.466Z,"    0"
2019-06-15T02:02:20.111Z,"    0"
2019-06-15T02:07:15.876Z,"    0"
2019-06-15T02:12:11.901Z,"    0"
2019-06-15T02:17:08.153Z,"    0"
2019-06-15T02:22:04.568Z,"    0"
2019-06-15T02:27:01.362Z,"    0"
2019-06-15T02:31:57.065Z,"    4"
2019-06-15T02:36:53.118Z,"    4"
2019-06-15T02:41:48.793Z,"    8"
2019-06-15T02:46:44.353Z,"   12"
2019-06-15T02:51:40.174Z,"   20"
2019-06-15T02:56:36.069Z,"   36"
2019-06-15T03:01:31.662Z,"   60"
2019-06-15T03:06:28.341Z,"   84"
2019-06-15T03:11:24.279Z,"   96"
2019-06-15T03:16:20.275Z,"   96"
2019-06-15T03:21:16.026Z,"  132"
2019-06-15T03:26:13.259Z,"  160"
2019-06-15T03:31:09.918Z,"  148"
2019-06-15T03:36:05.689Z,"  148"
2019-06-15T03:41:01.726Z,"  232"
2019-06-15T03:45:58.835Z,"  444"
2019-06-15T03:50:54.636Z,"  372"
2019-06-15T03:55:51.853Z,"  416"
2019-06-15T04:00:48.697Z,"  596"
2019-06-15T04:05:44.556Z,"  928"
2019-06-15T04:10:40.575Z," 1396"
2019-06-15T04:15:36.461Z," 2384"
2019-06-15T04:20:32.535Z," 3000"
2019-06-15T04:25:28.839Z," 3496"
2019-06-15T04:30:25.122Z," 3736"
2019-06-15T04:35:21.302Z," 4224"
2019-06-15T04:40:17.793Z," 4552"
2019-06-15T04:45:14.443Z," 5088"
2019-06-15T04:50:10.541Z," 5696"
2019-06-15T04:55:07.023Z," 6384"
2019-06-15T05:00:04.337Z," 6632"
2019-06-15T05:05:00.160Z," 5288"
2019-06-15T05:09:56.811Z," 5604"
2019-06-15T05:14:52.458Z," 9204"
2019-06-15T05:19:49.355Z," 6368"
2019-06-15T05:24:45.647Z," 8680"
2019-06-15T05:29:43.319Z," 8604"
2019-06-15T05:34:41.668Z," 2308"
2019-06-15T05:39:37.533Z," 2960"
2019-06-15T05:44:32.575Z," 4372"
2019-06-15T05:49:28.434Z,10648
2019-06-15T05:59:28.253Z," 4032"
2019-06-15T06:04:23.647Z," 4972"
2019-06-15T06:09:19.681Z," 4628"
2019-06-15T06:14:15.369Z," 3964"
2019-06-15T06:19:13.148Z," 5152"
2019-06-15T06:24:10.656Z," 4292"
2019-06-15T06:29:06.071Z," 3112"
2019-06-15T06:34:02.532Z," 1920"
2019-06-15T06:38:59.017Z," 2996"
2019-06-15T06:43:55.192Z," 5808"
2019-06-15T06:48:54.044Z," 7852"
2019-06-15T06:58:52.825Z,16544
2019-06-15T07:03:49.332Z,16928
2019-06-15T07:08:48.027Z," 9512"
2019-06-15T07:13:44.649Z,14724
2019-06-15T07:18:40.607Z,14840
2019-06-15T07:23:40.500Z,14192
2019-06-15T07:28:36.773Z,14292
2019-06-15T07:33:34.546Z,11908
2019-06-15T07:38:31.368Z," 6888"
2019-06-15T07:43:26.764Z," 4180"
2019-06-15T07:48:23.806Z," 4064"
2019-06-15T07:53:20.885Z," 3272"
2019-06-15T07:58:24.564Z," 2948"
2019-06-15T08:08:16.334Z," 1960"
2019-06-15T08:13:12.887Z," 2076"
2019-06-15T08:18:09.870Z," 3056"
2019-06-15T08:23:06.159Z," 2088"
2019-06-15T08:28:01.650Z," 1948"
2019-06-15T08:32:57.517Z," 2448"
2019-06-15T08:37:54.289Z," 2780"
2019-06-15T08:42:49.784Z," 3056"
2019-06-15T08:47:46.657Z," 4072"
2019-06-15T08:52:43.242Z," 4380"
2019-06-15T08:57:40.778Z," 3348"
2019-06-15T09:02:35.901Z," 3140"
2019-06-15T09:07:32.736Z," 3172"
2019-06-15T09:12:28.740Z," 2892"
2019-06-15T09:22:24.993Z," 4260"
2019-06-15T09:27:20.978Z," 7608"
2019-06-15T09:32:17.683Z," 8216"
2019-06-15T09:37:16.805Z,16116
2019-06-15T09:42:13.416Z,26816
2019-06-15T09:47:16.657Z," 9488"
2019-06-15T09:57:16.661Z,11048
2019-06-15T10:02:12.698Z," 8204"
2019-06-15T10:07:09.474Z," 6756"
2019-06-15T10:12:06.968Z," 7492"
2019-06-15T10:17:06.088Z," 9820"
2019-06-15T10:22:01.652Z,26016
2019-06-15T10:26:59.601Z,30624
2019-06-15T10:31:56.276Z,15844
2019-06-15T10:36:52.357Z,12912
2019-06-15T10:41:48.933Z," 5736"
2019-06-15T10:46:47.833Z," 3996"
2019-06-15T10:51:43.371Z," 3280"
2019-06-15T10:56:40.367Z," 4712"
2019-06-15T11:01:36.436Z," 1616"
2019-06-15T11:06:32.634Z," 2132"
2019-06-15T11:11:28.076Z," 1828"
2019-06-15T11:16:25.208Z," 5688"
2019-06-15T11:21:23.637Z," 9324"
2019-06-15T11:26:19.099Z,12884
2019-06-15T11:31:15.773Z," 9372"
2019-06-15T11:41:15.726Z,25568
2019-06-15T11:46:13.416Z,121504
2019-06-15T11:51:11.071Z,86752
2019-06-15T11:56:10.669Z,68960
2019-06-15T12:01:06.953Z,79840
2019-06-15T12:06:06.140Z,80544
2019-06-15T12:11:02.377Z,111360
2019-06-15T12:15:59.017Z,13540
2019-06-15T12:20:54.212Z," 8996"
2019-06-15T12:25:52.510Z,13428
2019-06-15T12:30:48.436Z,14404
2019-06-15T12:35:45.157Z,11036
2019-06-15T12:40:39.754Z," 6148"
2019-06-15T12:45:36.187Z," 7704"
2019-06-15T12:50:30.805Z,24096
2019-06-15T12:55:27.690Z,46880
2019-06-15T13:00:24.643Z,91520
2019-06-15T13:05:23.841Z,27904
2019-06-15T13:10:20.838Z,108768
2019-06-15T13:15:19.118Z,98400
2019-06-15T13:20:14.943Z,66144
2019-06-15T13:25:12.663Z,30784
2019-06-15T13:30:09.405Z," 9356"
2019-06-15T13:45:04.627Z," 8112"
2019-06-15T13:50:01.522Z," 8728"
2019-06-15T13:54:58.520Z," 6300"
2019-06-15T13:59:53.751Z," 7924"
2019-06-15T14:04:51.229Z," 8628"
2019-06-15T14:09:50.112Z," 9764"
2019-06-15T14:14:45.831Z," 7556"
2019-06-15T14:19:42.150Z," 5988"
2019-06-15T14:24:38.160Z," 6516"
2019-06-15T14:29:34.641Z," 8932"
2019-06-15T14:34:30.438Z," 5716"
2019-06-15T14:39:27.425Z," 5216"
2019-06-15T14:44:22.720Z," 4888"
2019-06-15T14:49:20.515Z," 5664"
2019-06-15T14:54:18.225Z," 5428"
2019-06-15T14:59:14.888Z," 3796"
2019-06-15T15:04:13.373Z," 3448"
2019-06-15T15:14:17.214Z," 4328"
2019-06-15T15:24:11.744Z," 3172"
2019-06-15T15:29:08.179Z," 3428"
2019-06-15T15:34:07.705Z," 3276"
2019-06-15T15:44:04.239Z," 3484"
2019-06-15T15:54:01.217Z," 3176"
2019-06-15T15:58:59.669Z," 6520"
2019-06-15T16:03:57.380Z," 4388"
2019-06-15T16:08:53.753Z," 5552"
2019-06-15T16:13:50.214Z," 3772"
2019-06-15T16:18:47.206Z," 2808"
2019-06-15T16:23:46.270Z," 2328"
2019-06-15T16:28:42.904Z," 2108"
2019-06-15T16:33:38.057Z," 2096"
2019-06-15T16:43:37.044Z," 3348"
2019-06-15T16:48:33.347Z," 3840"
2019-06-15T16:53:30.325Z," 3464"
2019-06-15T17:03:29.022Z," 3524"
2019-06-15T17:08:24.823Z," 2884"
2019-06-15T17:13:25.838Z," 2196"
2019-06-15T17:18:20.542Z," 1936"
2019-06-15T17:23:18.358Z," 2152"
2019-06-15T17:28:13.979Z," 2556"
2019-06-15T17:33:10.915Z," 2096"
2019-06-15T17:43:07.234Z," 2056"
2019-06-15T17:48:06.474Z," 1812"
2019-06-15T17:53:02.116Z," 1704"
2019-06-15T17:57:59.351Z," 1676"
2019-06-15T18:02:57.594Z," 1836"
2019-06-15T18:07:52.871Z," 1776"
2019-06-15T18:12:49.583Z," 1368"
2019-06-15T18:17:49.046Z," 1192"
2019-06-15T18:22:46.810Z,"  980"
2019-06-15T18:27:41.702Z,"  904"
2019-06-15T18:32:40.634Z," 1000"
2019-06-15T18:37:37.105Z," 1072"
2019-06-15T18:42:33.744Z," 1208"
2019-06-15T18:47:30.248Z," 1404"
2019-06-15T18:52:29.047Z," 1592"
2019-06-15T18:57:26.938Z," 1692"
2019-06-15T19:07:26.852Z," 1320"
2019-06-15T19:12:22.220Z," 1112"
2019-06-15T19:17:20.926Z,"  904"
2019-06-15T19:22:18.180Z,"  708"
2019-06-15T19:27:16.168Z,"  556"
2019-06-15T19:32:17.096Z,"  428"
2019-06-15T19:37:14.260Z,"  328"
2019-06-15T19:42:09.381Z,"  244"
2019-06-15T19:47:07.168Z,"  172"
2019-06-15T20:02:03.057Z,"   48"
2019-06-15T20:06:58.547Z,"   32"
2019-06-15T20:11:56.017Z,"   16"
2019-06-15T20:16:51.367Z,"    8"
2019-06-15T20:21:49.415Z,"    8"
2019-06-15T20:26:45.607Z,"    4"
2019-06-15T20:31:41.427Z,"    4"
2019-06-15T20:36:39.312Z,"    0"
2019-06-15T20:41:37.333Z,"    0"
2019-06-15T21:01:37.736Z,"    0"
